sensor_id;sensor_type;location;lat;lon;timestamp;temperature;humidity
75493;DHT22;64071;51.466;7.260;2022-10-19T00:01:29;23.20;47.00
75493;DHT22;64071;51.466;7.260;2022-10-19T00:03:55;23.20;47.10
75493;DHT22;64071;51.466;7.260;2022-10-19T00:06:31;23.20;47.00
75493;DHT22;64071;51.466;7.260;2022-10-19T00:09:05;23.20;47.00
75493;DHT22;64071;51.466;7.260;2022-10-19T00:11:33;23.20;47.00
75493;DHT22;64071;51.466;7.260;2022-10-19T00:13:59;23.20;47.00
75493;DHT22;64071;51.466;7.260;2022-10-19T00:16:28;23.20;47.00
75493;DHT22;64071;51.466;7.260;2022-10-19T00:19:02;23.20;47.00
75493;DHT22;64071;51.466;7.260;2022-10-19T00:21:28;23.20;47.00
75493;DHT22;64071;51.466;7.260;2022-10-19T00:23:53;23.20;47.00
75493;DHT22;64071;51.466;7.260;2022-10-19T00:26:19;23.20;46.90
75493;DHT22;64071;51.466;7.260;2022-10-19T00:28:44;23.20;47.00
75493;DHT22;64071;51.466;7.260;2022-10-19T00:31:13;23.20;46.90
75493;DHT22;64071;51.466;7.260;2022-10-19T00:33:39;23.20;46.90
75493;DHT22;64071;51.466;7.260;2022-10-19T00:36:05;23.20;46.90
75493;DHT22;64071;51.466;7.260;2022-10-19T00:38:40;23.20;46.80
75493;DHT22;64071;51.466;7.260;2022-10-19T00:41:06;23.20;46.80
75493;DHT22;64071;51.466;7.260;2022-10-19T00:43:31;23.20;46.80
75493;DHT22;64071;51.466;7.260;2022-10-19T00:45:57;23.20;46.80
75493;DHT22;64071;51.466;7.260;2022-10-19T00:48:29;23.20;46.80
75493;DHT22;64071;51.466;7.260;2022-10-19T00:50:57;23.10;46.80
75493;DHT22;64071;51.466;7.260;2022-10-19T00:53:25;23.20;46.80
75493;DHT22;64071;51.466;7.260;2022-10-19T00:55:51;23.10;46.80
75493;DHT22;64071;51.466;7.260;2022-10-19T00:58:17;23.10;46.80
75493;DHT22;64071;51.466;7.260;2022-10-19T01:00:42;23.10;46.70
75493;DHT22;64071;51.466;7.260;2022-10-19T01:03:09;23.10;46.70
75493;DHT22;64071;51.466;7.260;2022-10-19T01:05:36;23.10;46.70
75493;DHT22;64071;51.466;7.260;2022-10-19T01:08:02;23.10;46.70
75493;DHT22;64071;51.466;7.260;2022-10-19T01:10:56;23.10;46.70
75493;DHT22;64071;51.466;7.260;2022-10-19T01:13:53;23.10;46.70
75493;DHT22;64071;51.466;7.260;2022-10-19T01:16:32;23.10;46.70
75493;DHT22;64071;51.466;7.260;2022-10-19T01:19:27;23.10;46.70
75493;DHT22;64071;51.466;7.260;2022-10-19T01:30:37;23.00;46.60
75493;DHT22;64071;51.466;7.260;2022-10-19T01:33:40;23.10;46.60
75493;DHT22;64071;51.466;7.260;2022-10-19T01:36:22;23.00;46.60
75493;DHT22;64071;51.466;7.260;2022-10-19T01:39:10;23.00;46.60
75493;DHT22;64071;51.466;7.260;2022-10-19T01:44:49;23.00;46.60
75493;DHT22;64071;51.466;7.260;2022-10-19T01:47:33;23.00;46.50
75493;DHT22;64071;51.466;7.260;2022-10-19T01:50:26;23.00;46.50
75493;DHT22;64071;51.466;7.260;2022-10-19T01:52:54;23.00;46.50
75493;DHT22;64071;51.466;7.260;2022-10-19T01:55:20;23.00;46.50
75493;DHT22;64071;51.466;7.260;2022-10-19T01:57:53;23.00;46.50
75493;DHT22;64071;51.466;7.260;2022-10-19T02:00:22;23.00;46.50
75493;DHT22;64071;51.466;7.260;2022-10-19T02:02:50;23.00;46.50
75493;DHT22;64071;51.466;7.260;2022-10-19T02:05:19;23.00;46.50
75493;DHT22;64071;51.466;7.260;2022-10-19T02:07:48;23.00;46.40
75493;DHT22;64071;51.466;7.260;2022-10-19T02:10:15;23.00;46.30
75493;DHT22;64071;51.466;7.260;2022-10-19T02:12:41;23.00;46.40
75493;DHT22;64071;51.466;7.260;2022-10-19T02:15:14;23.00;46.30
75493;DHT22;64071;51.466;7.260;2022-10-19T02:17:41;23.00;46.30
75493;DHT22;64071;51.466;7.260;2022-10-19T02:20:08;23.00;46.30
75493;DHT22;64071;51.466;7.260;2022-10-19T02:22:34;22.90;46.30
75493;DHT22;64071;51.466;7.260;2022-10-19T02:25:00;22.90;46.30
75493;DHT22;64071;51.466;7.260;2022-10-19T02:27:27;22.90;46.20
75493;DHT22;64071;51.466;7.260;2022-10-19T02:29:53;22.90;46.20
75493;DHT22;64071;51.466;7.260;2022-10-19T02:32:18;23.00;46.20
75493;DHT22;64071;51.466;7.260;2022-10-19T02:34:44;22.90;46.20
75493;DHT22;64071;51.466;7.260;2022-10-19T02:37:10;22.90;46.20
75493;DHT22;64071;51.466;7.260;2022-10-19T02:39:37;22.90;46.20
75493;DHT22;64071;51.466;7.260;2022-10-19T02:42:10;22.90;46.20
75493;DHT22;64071;51.466;7.260;2022-10-19T02:44:41;22.90;46.10
75493;DHT22;64071;51.466;7.260;2022-10-19T02:47:29;22.90;46.10
75493;DHT22;64071;51.466;7.260;2022-10-19T02:49:56;22.90;46.10
75493;DHT22;64071;51.466;7.260;2022-10-19T02:52:21;22.90;46.10
75493;DHT22;64071;51.466;7.260;2022-10-19T02:54:47;22.90;46.10
75493;DHT22;64071;51.466;7.260;2022-10-19T02:57:22;22.90;46.00
75493;DHT22;64071;51.466;7.260;2022-10-19T02:59:48;22.90;46.00
75493;DHT22;64071;51.466;7.260;2022-10-19T03:02:15;22.90;46.00
75493;DHT22;64071;51.466;7.260;2022-10-19T03:04:41;22.90;46.00
75493;DHT22;64071;51.466;7.260;2022-10-19T03:07:08;22.90;45.90
75493;DHT22;64071;51.466;7.260;2022-10-19T03:09:35;22.90;45.90
75493;DHT22;64071;51.466;7.260;2022-10-19T03:12:00;22.90;45.90
75493;DHT22;64071;51.466;7.260;2022-10-19T03:14:26;22.90;45.90
75493;DHT22;64071;51.466;7.260;2022-10-19T03:16:51;22.90;45.80
75493;DHT22;64071;51.466;7.260;2022-10-19T03:19:17;22.90;45.80
75493;DHT22;64071;51.466;7.260;2022-10-19T03:21:42;22.90;45.80
75493;DHT22;64071;51.466;7.260;2022-10-19T03:24:08;22.90;45.80
75493;DHT22;64071;51.466;7.260;2022-10-19T03:26:33;22.80;45.80
75493;DHT22;64071;51.466;7.260;2022-10-19T03:28:59;22.90;45.80
75493;DHT22;64071;51.466;7.260;2022-10-19T03:31:24;22.90;45.80
75493;DHT22;64071;51.466;7.260;2022-10-19T03:33:51;22.90;45.80
75493;DHT22;64071;51.466;7.260;2022-10-19T03:36:26;22.80;45.70
75493;DHT22;64071;51.466;7.260;2022-10-19T03:38:54;22.80;45.70
75493;DHT22;64071;51.466;7.260;2022-10-19T03:41:20;22.80;45.70
75493;DHT22;64071;51.466;7.260;2022-10-19T03:43:46;22.90;45.70
75493;DHT22;64071;51.466;7.260;2022-10-19T03:46:12;22.80;45.70
75493;DHT22;64071;51.466;7.260;2022-10-19T03:48:37;22.80;45.60
75493;DHT22;64071;51.466;7.260;2022-10-19T03:51:06;22.80;45.60
75493;DHT22;64071;51.466;7.260;2022-10-19T03:53:32;22.80;45.60
75493;DHT22;64071;51.466;7.260;2022-10-19T03:56:06;22.80;45.60
75493;DHT22;64071;51.466;7.260;2022-10-19T03:58:34;22.80;45.60
75493;DHT22;64071;51.466;7.260;2022-10-19T04:00:59;22.80;45.60
75493;DHT22;64071;51.466;7.260;2022-10-19T04:03:25;22.80;45.50
75493;DHT22;64071;51.466;7.260;2022-10-19T04:05:51;22.80;45.50
75493;DHT22;64071;51.466;7.260;2022-10-19T04:08:17;22.80;45.50
75493;DHT22;64071;51.466;7.260;2022-10-19T04:10:43;22.80;45.50
75493;DHT22;64071;51.466;7.260;2022-10-19T04:13:08;22.80;45.50
75493;DHT22;64071;51.466;7.260;2022-10-19T04:15:35;22.80;45.40
75493;DHT22;64071;51.466;7.260;2022-10-19T04:18:00;22.80;45.40
75493;DHT22;64071;51.466;7.260;2022-10-19T04:20:26;22.80;45.40
75493;DHT22;64071;51.466;7.260;2022-10-19T04:22:52;22.80;45.50
75493;DHT22;64071;51.466;7.260;2022-10-19T04:25:18;22.80;45.40
75493;DHT22;64071;51.466;7.260;2022-10-19T04:27:44;22.80;45.30
75493;DHT22;64071;51.466;7.260;2022-10-19T04:30:10;22.80;45.40
75493;DHT22;64071;51.466;7.260;2022-10-19T04:32:36;22.80;45.30
75493;DHT22;64071;51.466;7.260;2022-10-19T04:35:01;22.80;45.20
75493;DHT22;64071;51.466;7.260;2022-10-19T04:37:27;22.80;45.30
75493;DHT22;64071;51.466;7.260;2022-10-19T04:39:52;22.70;45.20
75493;DHT22;64071;51.466;7.260;2022-10-19T04:42:18;22.70;45.10
75493;DHT22;64071;51.466;7.260;2022-10-19T04:44:43;22.80;45.10
75493;DHT22;64071;51.466;7.260;2022-10-19T04:47:09;22.80;45.00
75493;DHT22;64071;51.466;7.260;2022-10-19T04:49:34;22.70;45.00
75493;DHT22;64071;51.466;7.260;2022-10-19T04:52:00;22.70;44.90
75493;DHT22;64071;51.466;7.260;2022-10-19T04:54:25;22.80;44.80
75493;DHT22;64071;51.466;7.260;2022-10-19T04:56:51;22.80;44.80
75493;DHT22;64071;51.466;7.260;2022-10-19T04:59:18;22.80;44.70
75493;DHT22;64071;51.466;7.260;2022-10-19T05:01:44;22.80;44.80
75493;DHT22;64071;51.466;7.260;2022-10-19T05:04:09;22.70;44.80
75493;DHT22;64071;51.466;7.260;2022-10-19T05:06:35;22.80;44.80
75493;DHT22;64071;51.466;7.260;2022-10-19T05:09:01;22.70;44.90
75493;DHT22;64071;51.466;7.260;2022-10-19T05:11:27;22.70;44.90
75493;DHT22;64071;51.466;7.260;2022-10-19T05:13:54;22.80;44.80
75493;DHT22;64071;51.466;7.260;2022-10-19T05:16:22;22.80;44.80
75493;DHT22;64071;51.466;7.260;2022-10-19T05:18:49;22.80;44.70
75493;DHT22;64071;51.466;7.260;2022-10-19T05:21:15;22.80;44.70
75493;DHT22;64071;51.466;7.260;2022-10-19T05:23:41;22.80;44.70
75493;DHT22;64071;51.466;7.260;2022-10-19T05:26:15;22.80;44.80
75493;DHT22;64071;51.466;7.260;2022-10-19T05:28:42;22.80;45.50
75493;DHT22;64071;51.466;7.260;2022-10-19T05:31:11;22.80;45.20
75493;DHT22;64071;51.466;7.260;2022-10-19T05:33:38;22.80;44.90
75493;DHT22;64071;51.466;7.260;2022-10-19T05:36:20;22.80;45.10
75493;DHT22;64071;51.466;7.260;2022-10-19T05:38:47;22.80;45.20
75493;DHT22;64071;51.466;7.260;2022-10-19T05:41:14;22.90;45.60
75493;DHT22;64071;51.466;7.260;2022-10-19T05:43:40;22.90;45.70
75493;DHT22;64071;51.466;7.260;2022-10-19T05:46:14;22.90;45.70
75493;DHT22;64071;51.466;7.260;2022-10-19T05:48:42;22.90;46.00
75493;DHT22;64071;51.466;7.260;2022-10-19T05:51:10;22.90;46.10
75493;DHT22;64071;51.466;7.260;2022-10-19T05:53:36;22.90;46.10
75493;DHT22;64071;51.466;7.260;2022-10-19T05:56:04;22.90;46.30
75493;DHT22;64071;51.466;7.260;2022-10-19T05:58:30;22.90;46.40
75493;DHT22;64071;51.466;7.260;2022-10-19T06:00:57;22.90;46.40
75493;DHT22;64071;51.466;7.260;2022-10-19T06:03:24;22.90;46.40
75493;DHT22;64071;51.466;7.260;2022-10-19T06:05:50;22.90;46.50
75493;DHT22;64071;51.466;7.260;2022-10-19T06:08:17;22.90;46.70
75493;DHT22;64071;51.466;7.260;2022-10-19T06:10:43;22.90;46.80
75493;DHT22;64071;51.466;7.260;2022-10-19T06:13:09;22.90;47.00
75493;DHT22;64071;51.466;7.260;2022-10-19T06:15:35;23.00;47.10
75493;DHT22;64071;51.466;7.260;2022-10-19T06:18:10;23.00;47.10
75493;DHT22;64071;51.466;7.260;2022-10-19T06:20:39;23.00;46.90
75493;DHT22;64071;51.466;7.260;2022-10-19T06:23:05;23.00;46.90
75493;DHT22;64071;51.466;7.260;2022-10-19T06:25:32;23.00;46.90
75493;DHT22;64071;51.466;7.260;2022-10-19T06:27:58;23.00;46.90
75493;DHT22;64071;51.466;7.260;2022-10-19T06:30:24;23.00;46.70
75493;DHT22;64071;51.466;7.260;2022-10-19T06:32:49;23.00;46.60
75493;DHT22;64071;51.466;7.260;2022-10-19T06:35:15;23.00;46.60
75493;DHT22;64071;51.466;7.260;2022-10-19T06:37:41;23.00;46.60
75493;DHT22;64071;51.466;7.260;2022-10-19T06:40:07;23.00;46.50
75493;DHT22;64071;51.466;7.260;2022-10-19T06:42:33;23.00;46.40
75493;DHT22;64071;51.466;7.260;2022-10-19T06:44:59;23.10;46.30
75493;DHT22;64071;51.466;7.260;2022-10-19T06:47:24;23.10;46.30
75493;DHT22;64071;51.466;7.260;2022-10-19T06:49:56;23.10;46.30
75493;DHT22;64071;51.466;7.260;2022-10-19T06:52:21;23.10;46.20
75493;DHT22;64071;51.466;7.260;2022-10-19T06:54:47;23.10;46.10
75493;DHT22;64071;51.466;7.260;2022-10-19T06:57:12;23.10;46.00
75493;DHT22;64071;51.466;7.260;2022-10-19T06:59:38;23.10;46.00
75493;DHT22;64071;51.466;7.260;2022-10-19T07:02:04;23.10;46.00
75493;DHT22;64071;51.466;7.260;2022-10-19T07:04:29;23.10;45.90
75493;DHT22;64071;51.466;7.260;2022-10-19T07:06:55;23.10;45.80
75493;DHT22;64071;51.466;7.260;2022-10-19T07:09:20;23.20;45.80
75493;DHT22;64071;51.466;7.260;2022-10-19T07:11:47;23.20;45.70
75493;DHT22;64071;51.466;7.260;2022-10-19T07:14:13;23.20;45.60
75493;DHT22;64071;51.466;7.260;2022-10-19T07:16:38;23.20;45.50
75493;DHT22;64071;51.466;7.260;2022-10-19T07:19:04;23.20;45.40
75493;DHT22;64071;51.466;7.260;2022-10-19T07:21:29;23.30;45.50
75493;DHT22;64071;51.466;7.260;2022-10-19T07:23:55;23.30;45.40
75493;DHT22;64071;51.466;7.260;2022-10-19T07:26:23;23.30;45.40
75493;DHT22;64071;51.466;7.260;2022-10-19T07:28:52;23.30;45.30
75493;DHT22;64071;51.466;7.260;2022-10-19T07:31:20;23.30;45.40
75493;DHT22;64071;51.466;7.260;2022-10-19T07:33:51;23.30;45.30
75493;DHT22;64071;51.466;7.260;2022-10-19T07:36:16;23.30;45.30
75493;DHT22;64071;51.466;7.260;2022-10-19T07:38:42;23.40;45.10
75493;DHT22;64071;51.466;7.260;2022-10-19T07:41:11;23.40;45.10
75493;DHT22;64071;51.466;7.260;2022-10-19T07:43:41;23.40;45.10
75493;DHT22;64071;51.466;7.260;2022-10-19T07:46:10;23.40;45.00
75493;DHT22;64071;51.466;7.260;2022-10-19T07:48:36;23.40;45.00
75493;DHT22;64071;51.466;7.260;2022-10-19T07:51:04;23.40;45.00
75493;DHT22;64071;51.466;7.260;2022-10-19T07:53:32;23.50;45.00
75493;DHT22;64071;51.466;7.260;2022-10-19T07:56:06;23.50;45.00
75493;DHT22;64071;51.466;7.260;2022-10-19T07:58:33;23.50;45.00
75493;DHT22;64071;51.466;7.260;2022-10-19T08:01:04;23.50;44.90
75493;DHT22;64071;51.466;7.260;2022-10-19T08:03:29;23.50;45.00
75493;DHT22;64071;51.466;7.260;2022-10-19T08:06:06;23.50;44.90
75493;DHT22;64071;51.466;7.260;2022-10-19T08:08:32;23.50;44.60
75493;DHT22;64071;51.466;7.260;2022-10-19T08:11:13;23.60;44.70
75493;DHT22;64071;51.466;7.260;2022-10-19T08:13:39;23.60;44.60
75493;DHT22;64071;51.466;7.260;2022-10-19T08:16:19;23.60;44.50
75493;DHT22;64071;51.466;7.260;2022-10-19T08:18:45;23.60;44.40
75493;DHT22;64071;51.466;7.260;2022-10-19T08:21:10;23.60;44.40
75493;DHT22;64071;51.466;7.260;2022-10-19T08:23:36;23.60;44.30
75493;DHT22;64071;51.466;7.260;2022-10-19T08:26:01;23.60;44.40
75493;DHT22;64071;51.466;7.260;2022-10-19T08:28:27;23.60;44.40
75493;DHT22;64071;51.466;7.260;2022-10-19T08:30:52;23.70;44.30
75493;DHT22;64071;51.466;7.260;2022-10-19T08:33:22;23.70;44.40
75493;DHT22;64071;51.466;7.260;2022-10-19T08:35:48;23.70;44.40
75493;DHT22;64071;51.466;7.260;2022-10-19T08:38:14;23.70;44.40
75493;DHT22;64071;51.466;7.260;2022-10-19T08:40:39;23.70;44.40
75493;DHT22;64071;51.466;7.260;2022-10-19T08:43:37;23.70;44.40
75493;DHT22;64071;51.466;7.260;2022-10-19T08:46:22;23.70;44.50
75493;DHT22;64071;51.466;7.260;2022-10-19T08:48:49;23.80;44.50
75493;DHT22;64071;51.466;7.260;2022-10-19T08:51:16;23.80;44.50
75493;DHT22;64071;51.466;7.260;2022-10-19T08:56:27;23.80;44.40
75493;DHT22;64071;51.466;7.260;2022-10-19T09:02:21;23.80;44.30
75493;DHT22;64071;51.466;7.260;2022-10-19T09:04:59;23.80;44.20
75493;DHT22;64071;51.466;7.260;2022-10-19T09:07:34;23.80;44.30
75493;DHT22;64071;51.466;7.260;2022-10-19T09:12:53;23.90;44.20
75493;DHT22;64071;51.466;7.260;2022-10-19T09:15:26;23.90;44.20
75493;DHT22;64071;51.466;7.260;2022-10-19T09:17:53;23.90;44.10
75493;DHT22;64071;51.466;7.260;2022-10-19T09:20:21;23.90;44.00
75493;DHT22;64071;51.466;7.260;2022-10-19T09:23:03;23.90;44.00
75493;DHT22;64071;51.466;7.260;2022-10-19T09:25:29;23.90;43.90
75493;DHT22;64071;51.466;7.260;2022-10-19T09:28:09;23.90;44.00
75493;DHT22;64071;51.466;7.260;2022-10-19T09:30:37;24.00;44.00
75493;DHT22;64071;51.466;7.260;2022-10-19T09:33:05;24.00;43.90
75493;DHT22;64071;51.466;7.260;2022-10-19T09:35:37;24.00;43.90
75493;DHT22;64071;51.466;7.260;2022-10-19T09:38:06;24.00;43.90
75493;DHT22;64071;51.466;7.260;2022-10-19T09:40:34;24.00;43.90
75493;DHT22;64071;51.466;7.260;2022-10-19T09:43:00;24.00;43.90
75493;DHT22;64071;51.466;7.260;2022-10-19T09:45:38;24.10;43.80
75493;DHT22;64071;51.466;7.260;2022-10-19T09:48:18;24.10;43.70
75493;DHT22;64071;51.466;7.260;2022-10-19T09:50:59;24.10;43.70
75493;DHT22;64071;51.466;7.260;2022-10-19T09:53:26;24.10;43.60
75493;DHT22;64071;51.466;7.260;2022-10-19T09:55:58;24.10;43.10
75493;DHT22;64071;51.466;7.260;2022-10-19T09:58:26;24.10;43.50
75493;DHT22;64071;51.466;7.260;2022-10-19T10:00:53;24.20;43.30
75493;DHT22;64071;51.466;7.260;2022-10-19T10:05:48;24.20;43.00
75493;DHT22;64071;51.466;7.260;2022-10-19T10:08:20;24.20;42.90
75493;DHT22;64071;51.466;7.260;2022-10-19T10:11:09;24.20;42.80
75493;DHT22;64071;51.466;7.260;2022-10-19T10:13:38;24.20;42.50
75493;DHT22;64071;51.466;7.260;2022-10-19T10:16:07;24.20;42.50
75493;DHT22;64071;51.466;7.260;2022-10-19T10:18:36;24.30;42.40
75493;DHT22;64071;51.466;7.260;2022-10-19T10:21:14;24.30;42.40
75493;DHT22;64071;51.466;7.260;2022-10-19T10:24:01;24.30;42.30
75493;DHT22;64071;51.466;7.260;2022-10-19T10:26:28;24.40;42.10
75493;DHT22;64071;51.466;7.260;2022-10-19T10:28:53;24.40;42.20
75493;DHT22;64071;51.466;7.260;2022-10-19T10:31:22;24.40;42.10
75493;DHT22;64071;51.466;7.260;2022-10-19T10:33:57;24.40;41.90
75493;DHT22;64071;51.466;7.260;2022-10-19T10:36:27;24.40;41.70
75493;DHT22;64071;51.466;7.260;2022-10-19T10:39:00;24.50;41.70
75493;DHT22;64071;51.466;7.260;2022-10-19T10:41:30;24.50;41.50
75493;DHT22;64071;51.466;7.260;2022-10-19T10:44:02;24.50;41.30
75493;DHT22;64071;51.466;7.260;2022-10-19T10:46:36;24.60;41.20
75493;DHT22;64071;51.466;7.260;2022-10-19T10:49:06;24.60;41.00
75493;DHT22;64071;51.466;7.260;2022-10-19T10:51:38;24.60;40.90
75493;DHT22;64071;51.466;7.260;2022-10-19T10:54:08;24.60;40.10
75493;DHT22;64071;51.466;7.260;2022-10-19T10:56:40;24.70;39.80
75493;DHT22;64071;51.466;7.260;2022-10-19T10:59:17;24.70;39.20
75493;DHT22;64071;51.466;7.260;2022-10-19T11:02:10;24.80;39.70
75493;DHT22;64071;51.466;7.260;2022-10-19T11:04:40;24.80;39.50
75493;DHT22;64071;51.466;7.260;2022-10-19T11:07:25;24.80;39.60
75493;DHT22;64071;51.466;7.260;2022-10-19T11:09:56;24.80;38.60
75493;DHT22;64071;51.466;7.260;2022-10-19T11:13:00;24.80;38.30
75493;DHT22;64071;51.466;7.260;2022-10-19T11:15:43;24.80;39.40
75493;DHT22;64071;51.466;7.260;2022-10-19T11:18:28;24.70;39.60
75493;DHT22;64071;51.466;7.260;2022-10-19T11:21:01;24.70;39.30
75493;DHT22;64071;51.466;7.260;2022-10-19T11:23:54;24.70;39.70
75493;DHT22;64071;51.466;7.260;2022-10-19T11:31:40;24.60;40.10
75493;DHT22;64071;51.466;7.260;2022-10-19T11:40:01;24.50;40.60
75493;DHT22;64071;51.466;7.260;2022-10-19T11:42:34;24.60;40.50
75493;DHT22;64071;51.466;7.260;2022-10-19T11:45:26;24.60;40.70
75493;DHT22;64071;51.466;7.260;2022-10-19T11:56:50;24.60;40.70
75493;DHT22;64071;51.466;7.260;2022-10-19T11:59:54;24.60;40.70
75493;DHT22;64071;51.466;7.260;2022-10-19T12:05:41;24.60;41.00
75493;DHT22;64071;51.466;7.260;2022-10-19T12:13:56;24.50;40.30
75493;DHT22;64071;51.466;7.260;2022-10-19T12:16:20;24.50;40.50
75493;DHT22;64071;51.466;7.260;2022-10-19T12:18:51;24.50;40.50
75493;DHT22;64071;51.466;7.260;2022-10-19T12:21:30;24.50;40.40
75493;DHT22;64071;51.466;7.260;2022-10-19T12:23:59;24.60;40.50
75493;DHT22;64071;51.466;7.260;2022-10-19T12:26:29;24.60;40.60
75493;DHT22;64071;51.466;7.260;2022-10-19T12:28:58;24.60;40.60
75493;DHT22;64071;51.466;7.260;2022-10-19T12:31:26;24.60;40.50
75493;DHT22;64071;51.466;7.260;2022-10-19T12:42:23;24.60;40.80
75493;DHT22;64071;51.466;7.260;2022-10-19T12:45:17;24.60;40.80
75493;DHT22;64071;51.466;7.260;2022-10-19T12:53:40;24.60;40.70
75493;DHT22;64071;51.466;7.260;2022-10-19T12:56:25;24.70;40.80
75493;DHT22;64071;51.466;7.260;2022-10-19T13:01:41;24.70;40.60
75493;DHT22;64071;51.466;7.260;2022-10-19T13:04:14;24.60;40.40
75493;DHT22;64071;51.466;7.260;2022-10-19T13:06:45;24.60;40.30
75493;DHT22;64071;51.466;7.260;2022-10-19T13:27:50;24.70;40.00
75493;DHT22;64071;51.466;7.260;2022-10-19T13:38:44;24.70;39.90
75493;DHT22;64071;51.466;7.260;2022-10-19T13:41:42;24.80;39.50
75493;DHT22;64071;51.466;7.260;2022-10-19T14:00:37;24.80;39.50
75493;DHT22;64071;51.466;7.260;2022-10-19T14:11:18;24.80;39.10
75493;DHT22;64071;51.466;7.260;2022-10-19T14:13:45;24.80;38.50
75493;DHT22;64071;51.466;7.260;2022-10-19T14:16:20;24.80;38.40
75493;DHT22;64071;51.466;7.260;2022-10-19T14:18:55;24.80;38.70
75493;DHT22;64071;51.466;7.260;2022-10-19T14:21:33;24.80;38.60
75493;DHT22;64071;51.466;7.260;2022-10-19T14:23:59;24.80;38.90
75493;DHT22;64071;51.466;7.260;2022-10-19T14:26:27;24.80;38.70
75493;DHT22;64071;51.466;7.260;2022-10-19T14:28:56;24.80;38.80
75493;DHT22;64071;51.466;7.260;2022-10-19T14:31:31;24.80;38.70
75493;DHT22;64071;51.466;7.260;2022-10-19T14:34:00;24.80;38.70
75493;DHT22;64071;51.466;7.260;2022-10-19T14:36:32;24.80;39.00
75493;DHT22;64071;51.466;7.260;2022-10-19T14:38:59;24.80;38.90
75493;DHT22;64071;51.466;7.260;2022-10-19T14:41:30;24.80;38.60
75493;DHT22;64071;51.466;7.260;2022-10-19T14:43:58;24.80;38.60
75493;DHT22;64071;51.466;7.260;2022-10-19T14:46:32;24.80;38.70
75493;DHT22;64071;51.466;7.260;2022-10-19T14:49:00;24.80;38.80
75493;DHT22;64071;51.466;7.260;2022-10-19T14:59:34;24.80;39.20
75493;DHT22;64071;51.466;7.260;2022-10-19T15:02:04;24.80;39.40
75493;DHT22;64071;51.466;7.260;2022-10-19T15:04:37;24.80;39.10
75493;DHT22;64071;51.466;7.260;2022-10-19T15:07:12;24.80;38.90
75493;DHT22;64071;51.466;7.260;2022-10-19T15:09:46;24.80;38.50
75493;DHT22;64071;51.466;7.260;2022-10-19T15:12:18;24.80;38.60
75493;DHT22;64071;51.466;7.260;2022-10-19T15:14:46;24.80;38.60
75493;DHT22;64071;51.466;7.260;2022-10-19T15:17:30;24.70;38.50
75493;DHT22;64071;51.466;7.260;2022-10-19T15:19:57;24.70;38.70
75493;DHT22;64071;51.466;7.260;2022-10-19T15:30:25;24.70;38.60
75493;DHT22;64071;51.466;7.260;2022-10-19T15:35:29;24.70;38.60
75493;DHT22;64071;51.466;7.260;2022-10-19T15:38:04;24.70;39.30
75493;DHT22;64071;51.466;7.260;2022-10-19T15:40:34;24.70;39.60
75493;DHT22;64071;51.466;7.260;2022-10-19T15:43:00;24.70;39.50
75493;DHT22;64071;51.466;7.260;2022-10-19T15:45:45;24.70;39.10
75493;DHT22;64071;51.466;7.260;2022-10-19T15:50:48;24.60;38.90
75493;DHT22;64071;51.466;7.260;2022-10-19T15:53:17;24.60;39.20
75493;DHT22;64071;51.466;7.260;2022-10-19T15:55:43;24.60;39.10
75493;DHT22;64071;51.466;7.260;2022-10-19T15:58:10;24.60;39.00
75493;DHT22;64071;51.466;7.260;2022-10-19T16:00:37;24.60;38.70
75493;DHT22;64071;51.466;7.260;2022-10-19T16:03:03;24.60;39.00
75493;DHT22;64071;51.466;7.260;2022-10-19T16:05:29;24.60;39.60
75493;DHT22;64071;51.466;7.260;2022-10-19T16:07:55;24.60;39.80
75493;DHT22;64071;51.466;7.260;2022-10-19T16:10:23;24.60;39.80
75493;DHT22;64071;51.466;7.260;2022-10-19T16:12:49;24.60;39.90
75493;DHT22;64071;51.466;7.260;2022-10-19T16:15:17;24.60;40.00
75493;DHT22;64071;51.466;7.260;2022-10-19T16:17:48;24.60;40.10
75493;DHT22;64071;51.466;7.260;2022-10-19T16:20:15;24.60;40.20
75493;DHT22;64071;51.466;7.260;2022-10-19T16:22:41;24.60;40.10
75493;DHT22;64071;51.466;7.260;2022-10-19T16:25:08;24.60;40.20
75493;DHT22;64071;51.466;7.260;2022-10-19T16:27:33;24.60;40.20
75493;DHT22;64071;51.466;7.260;2022-10-19T16:29:59;24.60;40.30
75493;DHT22;64071;51.466;7.260;2022-10-19T16:32:24;24.50;40.40
75493;DHT22;64071;51.466;7.260;2022-10-19T16:34:50;24.60;40.50
75493;DHT22;64071;51.466;7.260;2022-10-19T16:37:15;24.60;40.50
75493;DHT22;64071;51.466;7.260;2022-10-19T16:39:41;24.50;40.60
75493;DHT22;64071;51.466;7.260;2022-10-19T16:42:06;24.50;40.70
75493;DHT22;64071;51.466;7.260;2022-10-19T16:44:32;24.50;40.70
75493;DHT22;64071;51.466;7.260;2022-10-19T16:46:58;24.50;40.70
75493;DHT22;64071;51.466;7.260;2022-10-19T16:49:24;24.50;40.70
75493;DHT22;64071;51.466;7.260;2022-10-19T16:51:50;24.50;40.60
75493;DHT22;64071;51.466;7.260;2022-10-19T16:54:15;24.40;40.60
75493;DHT22;64071;51.466;7.260;2022-10-19T16:56:42;24.40;40.60
75493;DHT22;64071;51.466;7.260;2022-10-19T16:59:11;24.40;40.70
75493;DHT22;64071;51.466;7.260;2022-10-19T17:01:37;24.40;40.80
75493;DHT22;64071;51.466;7.260;2022-10-19T17:04:03;24.40;40.90
75493;DHT22;64071;51.466;7.260;2022-10-19T17:06:29;24.40;41.00
75493;DHT22;64071;51.466;7.260;2022-10-19T17:08:56;24.40;41.20
75493;DHT22;64071;51.466;7.260;2022-10-19T17:11:30;24.40;41.40
75493;DHT22;64071;51.466;7.260;2022-10-19T17:13:59;24.40;41.50
75493;DHT22;64071;51.466;7.260;2022-10-19T17:16:27;24.30;41.50
75493;DHT22;64071;51.466;7.260;2022-10-19T17:18:55;24.30;41.50
75493;DHT22;64071;51.466;7.260;2022-10-19T17:21:23;24.30;41.60
75493;DHT22;64071;51.466;7.260;2022-10-19T17:23:53;24.30;41.60
75493;DHT22;64071;51.466;7.260;2022-10-19T17:26:27;24.30;41.70
75493;DHT22;64071;51.466;7.260;2022-10-19T17:28:54;24.30;41.70
75493;DHT22;64071;51.466;7.260;2022-10-19T17:31:20;24.30;41.80
75493;DHT22;64071;51.466;7.260;2022-10-19T17:33:45;24.30;41.70
75493;DHT22;64071;51.466;7.260;2022-10-19T17:36:16;24.20;41.80
75493;DHT22;64071;51.466;7.260;2022-10-19T17:38:43;24.20;41.80
75493;DHT22;64071;51.466;7.260;2022-10-19T17:41:11;24.20;41.90
75493;DHT22;64071;51.466;7.260;2022-10-19T17:43:39;24.20;41.90
75493;DHT22;64071;51.466;7.260;2022-10-19T17:46:07;24.10;41.90
75493;DHT22;64071;51.466;7.260;2022-10-19T17:48:34;24.10;41.90
75493;DHT22;64071;51.466;7.260;2022-10-19T17:51:05;24.10;41.90
75493;DHT22;64071;51.466;7.260;2022-10-19T17:53:31;24.10;42.00
75493;DHT22;64071;51.466;7.260;2022-10-19T17:55:59;24.00;42.00
75493;DHT22;64071;51.466;7.260;2022-10-19T17:58:25;24.00;42.00
75493;DHT22;64071;51.466;7.260;2022-10-19T18:00:55;24.00;42.10
75493;DHT22;64071;51.466;7.260;2022-10-19T18:03:22;24.00;42.10
75493;DHT22;64071;51.466;7.260;2022-10-19T18:06:05;24.00;42.10
75493;DHT22;64071;51.466;7.260;2022-10-19T18:08:34;24.00;42.10